Archival Weather

Tokyo Intl

Tokyo, Japan (RJTT)

Report from: Friday, September 22, 2023 7:30 AM JST
Current time: Sunday, February 25, 2024 12:08 AM JST

Current weather – Weather history – Daily summaries
Weather forecast

Present weatherLight rain showers
Temperature26.0°C (78.8°F)
Dew point24.0°C (75.2°F)
Winds 5 kts (2.6 m/s, 5.8 mph) Vrb
Winds variableWinds variable from Southwest (230°) to Northwest (310°)
Visibility6.2 mi. (10 km)
Clouds Few clouds 1,000 ft. (305 m)
Scattered clouds 10,000 ft. (3,048 m)
Ceiling: Broken clouds 14,000 ft. (4,267 m)
Altimeter29.80 in.Hg (1009 mB)
Relative humidity89 %
Density altitude1,814 ft. (553 m)
Remarks No significant changes expected in the next two hours
Flight conditions Visual Meteorological Conditions
Raw dataRJTT 212230Z 27005KT 230V310 9999 -SHRA FEW010 SCT100 BKN140 26/24 Q1009 NOSIG
An error has occurred. This application may no longer respond until reloaded. Reload 🗙